sensor_id;sensor_type;location;lat;lon;timestamp;temperature;humidity
34542;DHT22;20784;51.332;12.410;2022-09-25T00:01:00;12.20;99.90
34542;DHT22;20784;51.332;12.410;2022-09-25T00:03:27;12.20;99.90
34542;DHT22;20784;51.332;12.410;2022-09-25T00:06:08;12.10;99.90
34542;DHT22;20784;51.332;12.410;2022-09-25T00:08:37;12.10;99.90
34542;DHT22;20784;51.332;12.410;2022-09-25T00:11:25;12.10;99.90
34542;DHT22;20784;51.332;12.410;2022-09-25T00:14:00;12.00;99.90
34542;DHT22;20784;51.332;12.410;2022-09-25T00:16:36;12.00;99.90
34542;DHT22;20784;51.332;12.410;2022-09-25T00:19:05;12.00;99.90
34542;DHT22;20784;51.332;12.410;2022-09-25T00:21:57;11.90;99.90
34542;DHT22;20784;51.332;12.410;2022-09-25T00:24:31;11.90;99.90
34542;DHT22;20784;51.332;12.410;2022-09-25T00:26:59;11.90;99.90
34542;DHT22;20784;51.332;12.410;2022-09-25T00:29:39;11.90;99.90
34542;DHT22;20784;51.332;12.410;2022-09-25T00:32:07;11.80;99.90
34542;DHT22;20784;51.332;12.410;2022-09-25T00:34:37;11.80;99.90
34542;DHT22;20784;51.332;12.410;2022-09-25T00:37:13;11.80;99.90
34542;DHT22;20784;51.332;12.410;2022-09-25T00:39:41;11.70;99.90
34542;DHT22;20784;51.332;12.410;2022-09-25T00:42:18;11.70;99.90
34542;DHT22;20784;51.332;12.410;2022-09-25T00:50:10;11.60;99.90
34542;DHT22;20784;51.332;12.410;2022-09-25T00:52:37;11.60;99.90
34542;DHT22;20784;51.332;12.410;2022-09-25T00:55:24;11.60;99.90
34542;DHT22;20784;51.332;12.410;2022-09-25T00:58:18;11.50;99.90
34542;DHT22;20784;51.332;12.410;2022-09-25T01:00:53;11.50;99.90
34542;DHT22;20784;51.332;12.410;2022-09-25T01:03:34;11.50;99.90
34542;DHT22;20784;51.332;12.410;2022-09-25T01:06:06;11.50;99.90
34542;DHT22;20784;51.332;12.410;2022-09-25T01:08:34;11.40;99.90
34542;DHT22;20784;51.332;12.410;2022-09-25T01:11:07;11.50;99.90
34542;DHT22;20784;51.332;12.410;2022-09-25T01:13:36;11.40;99.90
34542;DHT22;20784;51.332;12.410;2022-09-25T01:16:44;11.50;99.90
34542;DHT22;20784;51.332;12.410;2022-09-25T01:34:22;11.40;99.90
34542;DHT22;20784;51.332;12.410;2022-09-25T01:40:38;11.40;99.90
34542;DHT22;20784;51.332;12.410;2022-09-25T01:43:58;11.40;99.90
34542;DHT22;20784;51.332;12.410;2022-09-25T01:46:45;11.40;99.90
34542;DHT22;20784;51.332;12.410;2022-09-25T01:49:40;11.40;99.90
34542;DHT22;20784;51.332;12.410;2022-09-25T01:52:19;11.50;99.90
34542;DHT22;20784;51.332;12.410;2022-09-25T01:54:53;11.50;99.90
34542;DHT22;20784;51.332;12.410;2022-09-25T01:57:31;11.50;99.90
34542;DHT22;20784;51.332;12.410;2022-09-25T02:00:10;11.50;99.90
34542;DHT22;20784;51.332;12.410;2022-09-25T02:06:05;11.40;99.90
34542;DHT22;20784;51.332;12.410;2022-09-25T02:11:51;11.50;99.90
34542;DHT22;20784;51.332;12.410;2022-09-25T02:14:44;11.60;99.90
34542;DHT22;20784;51.332;12.410;2022-09-25T02:17:26;11.60;99.90
34542;DHT22;20784;51.332;12.410;2022-09-25T02:20:19;11.60;99.90
34542;DHT22;20784;51.332;12.410;2022-09-25T02:23:22;11.60;99.90
34542;DHT22;20784;51.332;12.410;2022-09-25T02:25:52;11.60;99.90
34542;DHT22;20784;51.332;12.410;2022-09-25T02:28:21;11.50;99.90
34542;DHT22;20784;51.332;12.410;2022-09-25T02:30:55;11.60;99.90
34542;DHT22;20784;51.332;12.410;2022-09-25T02:33:24;11.60;99.90
34542;DHT22;20784;51.332;12.410;2022-09-25T02:35:54;11.70;99.90
34542;DHT22;20784;51.332;12.410;2022-09-25T02:38:27;11.60;99.90
34542;DHT22;20784;51.332;12.410;2022-09-25T02:46:49;11.70;99.90
34542;DHT22;20784;51.332;12.410;2022-09-25T02:49:27;11.60;99.90
34542;DHT22;20784;51.332;12.410;2022-09-25T02:52:04;11.60;99.90
34542;DHT22;20784;51.332;12.410;2022-09-25T02:57:30;11.70;99.90
34542;DHT22;20784;51.332;12.410;2022-09-25T03:00:07;11.70;99.90
34542;DHT22;20784;51.332;12.410;2022-09-25T03:05:13;11.70;99.90
34542;DHT22;20784;51.332;12.410;2022-09-25T03:08:09;11.80;99.90
34542;DHT22;20784;51.332;12.410;2022-09-25T03:10:53;12.00;99.90
34542;DHT22;20784;51.332;12.410;2022-09-25T03:13:23;12.00;99.90
34542;DHT22;20784;51.332;12.410;2022-09-25T03:16:17;12.00;99.90
34542;DHT22;20784;51.332;12.410;2022-09-25T03:18:55;11.90;99.90
34542;DHT22;20784;51.332;12.410;2022-09-25T03:21:21;11.90;99.90
34542;DHT22;20784;51.332;12.410;2022-09-25T03:23:50;12.00;99.90
34542;DHT22;20784;51.332;12.410;2022-09-25T03:26:26;12.00;99.90
34542;DHT22;20784;51.332;12.410;2022-09-25T03:28:59;12.00;99.90
34542;DHT22;20784;51.332;12.410;2022-09-25T03:31:30;12.10;99.90
34542;DHT22;20784;51.332;12.410;2022-09-25T03:34:01;12.00;99.90
34542;DHT22;20784;51.332;12.410;2022-09-25T03:36:37;12.10;99.90
34542;DHT22;20784;51.332;12.410;2022-09-25T03:39:10;12.10;99.90
34542;DHT22;20784;51.332;12.410;2022-09-25T03:41:39;12.10;99.90
34542;DHT22;20784;51.332;12.410;2022-09-25T03:44:11;12.10;99.90
34542;DHT22;20784;51.332;12.410;2022-09-25T03:47:03;12.10;99.90
34542;DHT22;20784;51.332;12.410;2022-09-25T03:49:37;12.20;99.90
34542;DHT22;20784;51.332;12.410;2022-09-25T03:52:05;12.10;99.90
34542;DHT22;20784;51.332;12.410;2022-09-25T03:54:47;12.10;99.90
34542;DHT22;20784;51.332;12.410;2022-09-25T03:57:20;12.20;99.90
34542;DHT22;20784;51.332;12.410;2022-09-25T03:59:55;12.10;99.90
34542;DHT22;20784;51.332;12.410;2022-09-25T04:02:26;12.10;99.90
34542;DHT22;20784;51.332;12.410;2022-09-25T04:05:08;12.10;99.90
34542;DHT22;20784;51.332;12.410;2022-09-25T04:07:37;12.20;99.90
34542;DHT22;20784;51.332;12.410;2022-09-25T04:10:06;12.10;99.90
34542;DHT22;20784;51.332;12.410;2022-09-25T04:12:32;12.10;99.90
34542;DHT22;20784;51.332;12.410;2022-09-25T04:15:03;12.20;99.90
34542;DHT22;20784;51.332;12.410;2022-09-25T04:17:37;12.30;99.90
34542;DHT22;20784;51.332;12.410;2022-09-25T04:20:06;12.20;99.90
34542;DHT22;20784;51.332;12.410;2022-09-25T04:22:37;12.30;99.90
34542;DHT22;20784;51.332;12.410;2022-09-25T04:25:13;12.20;99.90
34542;DHT22;20784;51.332;12.410;2022-09-25T04:27:50;12.30;99.90
34542;DHT22;20784;51.332;12.410;2022-09-25T04:30:16;12.20;99.90
34542;DHT22;20784;51.332;12.410;2022-09-25T04:32:42;12.20;99.90
34542;DHT22;20784;51.332;12.410;2022-09-25T04:35:28;12.30;99.90
34542;DHT22;20784;51.332;12.410;2022-09-25T04:37:53;12.30;99.90
34542;DHT22;20784;51.332;12.410;2022-09-25T04:40:19;12.30;99.90
34542;DHT22;20784;51.332;12.410;2022-09-25T04:42:47;12.30;99.90
34542;DHT22;20784;51.332;12.410;2022-09-25T04:45:21;12.30;99.90
34542;DHT22;20784;51.332;12.410;2022-09-25T04:47:50;12.30;99.90
34542;DHT22;20784;51.332;12.410;2022-09-25T04:50:20;12.40;99.90
34542;DHT22;20784;51.332;12.410;2022-09-25T04:52:49;12.30;99.90
34542;DHT22;20784;51.332;12.410;2022-09-25T04:55:21;12.50;99.90
34542;DHT22;20784;51.332;12.410;2022-09-25T04:57:57;12.40;99.90
34542;DHT22;20784;51.332;12.410;2022-09-25T05:00:25;12.40;99.90
34542;DHT22;20784;51.332;12.410;2022-09-25T05:02:51;12.40;99.90
34542;DHT22;20784;51.332;12.410;2022-09-25T05:05:17;12.50;99.90
34542;DHT22;20784;51.332;12.410;2022-09-25T05:07:53;12.40;99.90
34542;DHT22;20784;51.332;12.410;2022-09-25T05:10:20;12.40;99.90
34542;DHT22;20784;51.332;12.410;2022-09-25T05:13:02;12.40;99.90
34542;DHT22;20784;51.332;12.410;2022-09-25T05:15:32;12.40;99.90
34542;DHT22;20784;51.332;12.410;2022-09-25T05:18:14;12.50;99.90
34542;DHT22;20784;51.332;12.410;2022-09-25T05:20:52;12.50;99.90
34542;DHT22;20784;51.332;12.410;2022-09-25T05:23:23;12.40;99.90
34542;DHT22;20784;51.332;12.410;2022-09-25T05:25:52;12.50;99.90
34542;DHT22;20784;51.332;12.410;2022-09-25T05:28:24;12.50;99.90
34542;DHT22;20784;51.332;12.410;2022-09-25T05:31:02;12.50;99.90
34542;DHT22;20784;51.332;12.410;2022-09-25T05:33:37;12.50;99.90
34542;DHT22;20784;51.332;12.410;2022-09-25T05:36:19;12.50;99.90
34542;DHT22;20784;51.332;12.410;2022-09-25T05:38:45;12.50;99.90
34542;DHT22;20784;51.332;12.410;2022-09-25T05:41:17;12.50;99.90
34542;DHT22;20784;51.332;12.410;2022-09-25T05:44:00;12.50;99.90
34542;DHT22;20784;51.332;12.410;2022-09-25T05:46:49;12.50;99.90
34542;DHT22;20784;51.332;12.410;2022-09-25T05:49:41;12.40;99.90
34542;DHT22;20784;51.332;12.410;2022-09-25T05:56:08;12.50;99.90
34542;DHT22;20784;51.332;12.410;2022-09-25T05:58:34;12.50;99.90
34542;DHT22;20784;51.332;12.410;2022-09-25T06:01:04;12.60;99.90
34542;DHT22;20784;51.332;12.410;2022-09-25T06:03:30;12.50;99.90
34542;DHT22;20784;51.332;12.410;2022-09-25T06:05:59;12.60;99.90
34542;DHT22;20784;51.332;12.410;2022-09-25T06:08:26;12.60;99.90
34542;DHT22;20784;51.332;12.410;2022-09-25T06:10:53;12.70;99.90
34542;DHT22;20784;51.332;12.410;2022-09-25T06:13:22;12.70;99.90
34542;DHT22;20784;51.332;12.410;2022-09-25T06:15:52;12.60;99.90
34542;DHT22;20784;51.332;12.410;2022-09-25T06:18:19;12.80;99.90
34542;DHT22;20784;51.332;12.410;2022-09-25T06:20:46;12.70;99.90
34542;DHT22;20784;51.332;12.410;2022-09-25T06:23:12;12.60;99.90
34542;DHT22;20784;51.332;12.410;2022-09-25T06:25:38;12.60;99.90
34542;DHT22;20784;51.332;12.410;2022-09-25T06:28:04;12.60;99.90
34542;DHT22;20784;51.332;12.410;2022-09-25T06:30:32;12.60;99.90
34542;DHT22;20784;51.332;12.410;2022-09-25T06:33:12;12.60;99.90
34542;DHT22;20784;51.332;12.410;2022-09-25T06:35:42;12.60;99.90
34542;DHT22;20784;51.332;12.410;2022-09-25T06:38:08;12.50;99.90
34542;DHT22;20784;51.332;12.410;2022-09-25T06:40:33;12.40;99.90
34542;DHT22;20784;51.332;12.410;2022-09-25T06:43:03;12.50;99.90
34542;DHT22;20784;51.332;12.410;2022-09-25T06:45:31;12.60;99.90
34542;DHT22;20784;51.332;12.410;2022-09-25T06:48:00;12.50;99.90
34542;DHT22;20784;51.332;12.410;2022-09-25T06:50:28;12.60;99.90
34542;DHT22;20784;51.332;12.410;2022-09-25T06:52:59;12.60;99.90
34542;DHT22;20784;51.332;12.410;2022-09-25T06:55:33;12.50;99.90
34542;DHT22;20784;51.332;12.410;2022-09-25T06:58:00;12.50;99.90
34542;DHT22;20784;51.332;12.410;2022-09-25T07:00:26;12.40;99.90
34542;DHT22;20784;51.332;12.410;2022-09-25T07:03:01;12.50;99.90
34542;DHT22;20784;51.332;12.410;2022-09-25T07:05:46;12.50;99.90
34542;DHT22;20784;51.332;12.410;2022-09-25T07:08:17;12.60;99.90
34542;DHT22;20784;51.332;12.410;2022-09-25T07:13:14;12.70;99.90
34542;DHT22;20784;51.332;12.410;2022-09-25T07:15:41;12.70;99.90
34542;DHT22;20784;51.332;12.410;2022-09-25T07:18:06;12.80;99.90
34542;DHT22;20784;51.332;12.410;2022-09-25T07:20:32;12.90;99.90
34542;DHT22;20784;51.332;12.410;2022-09-25T07:22:58;12.90;99.90
34542;DHT22;20784;51.332;12.410;2022-09-25T07:25:31;13.00;99.90
34542;DHT22;20784;51.332;12.410;2022-09-25T07:27:57;12.90;99.90
34542;DHT22;20784;51.332;12.410;2022-09-25T07:30:26;13.00;99.90
34542;DHT22;20784;51.332;12.410;2022-09-25T07:32:51;13.10;99.90
34542;DHT22;20784;51.332;12.410;2022-09-25T07:35:17;13.10;99.90
34542;DHT22;20784;51.332;12.410;2022-09-25T07:37:46;13.20;99.90
34542;DHT22;20784;51.332;12.410;2022-09-25T07:40:15;13.30;99.90
34542;DHT22;20784;51.332;12.410;2022-09-25T07:42:40;13.40;99.90
34542;DHT22;20784;51.332;12.410;2022-09-25T07:45:07;13.50;99.90
34542;DHT22;20784;51.332;12.410;2022-09-25T07:47:33;13.60;99.90
34542;DHT22;20784;51.332;12.410;2022-09-25T07:49:59;13.60;99.90
34542;DHT22;20784;51.332;12.410;2022-09-25T07:52:24;13.80;99.90
34542;DHT22;20784;51.332;12.410;2022-09-25T07:54:50;13.90;99.90
34542;DHT22;20784;51.332;12.410;2022-09-25T07:57:16;13.90;99.90
34542;DHT22;20784;51.332;12.410;2022-09-25T07:59:45;14.00;99.90
34542;DHT22;20784;51.332;12.410;2022-09-25T08:02:11;14.20;99.90
34542;DHT22;20784;51.332;12.410;2022-09-25T08:04:36;14.20;99.90
34542;DHT22;20784;51.332;12.410;2022-09-25T08:07:02;14.20;99.90
34542;DHT22;20784;51.332;12.410;2022-09-25T08:09:30;14.30;99.90
34542;DHT22;20784;51.332;12.410;2022-09-25T08:12:16;14.50;99.90
34542;DHT22;20784;51.332;12.410;2022-09-25T08:14:42;14.60;99.90
34542;DHT22;20784;51.332;12.410;2022-09-25T08:17:08;14.70;99.90
34542;DHT22;20784;51.332;12.410;2022-09-25T08:19:33;14.90;99.90
34542;DHT22;20784;51.332;12.410;2022-09-25T08:22:04;15.00;99.90
34542;DHT22;20784;51.332;12.410;2022-09-25T08:24:29;15.20;99.90
34542;DHT22;20784;51.332;12.410;2022-09-25T08:27:02;15.30;99.90
34542;DHT22;20784;51.332;12.410;2022-09-25T08:29:30;15.50;99.90
34542;DHT22;20784;51.332;12.410;2022-09-25T08:32:15;15.60;99.90
34542;DHT22;20784;51.332;12.410;2022-09-25T08:34:46;15.80;99.90
34542;DHT22;20784;51.332;12.410;2022-09-25T08:37:13;15.90;99.90
34542;DHT22;20784;51.332;12.410;2022-09-25T08:39:47;16.10;99.90
34542;DHT22;20784;51.332;12.410;2022-09-25T08:42:21;16.40;99.90
34542;DHT22;20784;51.332;12.410;2022-09-25T08:44:55;16.80;99.90
34542;DHT22;20784;51.332;12.410;2022-09-25T08:47:40;17.10;99.90
34542;DHT22;20784;51.332;12.410;2022-09-25T08:50:35;17.80;99.90
34542;DHT22;20784;51.332;12.410;2022-09-25T08:53:22;18.70;99.90
34542;DHT22;20784;51.332;12.410;2022-09-25T08:55:48;19.50;99.90
34542;DHT22;20784;51.332;12.410;2022-09-25T08:58:35;20.00;99.90
34542;DHT22;20784;51.332;12.410;2022-09-25T09:01:10;20.40;99.90
34542;DHT22;20784;51.332;12.410;2022-09-25T09:14:09;22.50;99.90
34542;DHT22;20784;51.332;12.410;2022-09-25T09:17:04;22.40;99.90
34542;DHT22;20784;51.332;12.410;2022-09-25T09:19:34;22.40;99.90
34542;DHT22;20784;51.332;12.410;2022-09-25T09:22:12;22.40;99.90
34542;DHT22;20784;51.332;12.410;2022-09-25T09:37:01;23.00;99.90
34542;DHT22;20784;51.332;12.410;2022-09-25T09:40:14;23.50;99.90
34542;DHT22;20784;51.332;12.410;2022-09-25T09:43:01;23.50;99.90
34542;DHT22;20784;51.332;12.410;2022-09-25T09:45:44;23.80;99.90
34542;DHT22;20784;51.332;12.410;2022-09-25T09:51:44;24.10;99.90
34542;DHT22;20784;51.332;12.410;2022-09-25T09:54:30;24.50;99.90
34542;DHT22;20784;51.332;12.410;2022-09-25T09:57:25;24.40;99.90
34542;DHT22;20784;51.332;12.410;2022-09-25T09:59:58;24.10;99.90
34542;DHT22;20784;51.332;12.410;2022-09-25T10:02:40;24.20;99.90
34542;DHT22;20784;51.332;12.410;2022-09-25T10:05:32;23.90;99.90
34542;DHT22;20784;51.332;12.410;2022-09-25T10:07:59;23.80;99.90
34542;DHT22;20784;51.332;12.410;2022-09-25T10:10:40;24.00;99.90
34542;DHT22;20784;51.332;12.410;2022-09-25T10:13:16;24.10;99.90
34542;DHT22;20784;51.332;12.410;2022-09-25T10:15:51;24.40;99.90
34542;DHT22;20784;51.332;12.410;2022-09-25T10:18:19;24.70;99.90
34542;DHT22;20784;51.332;12.410;2022-09-25T10:20:54;25.00;99.90
34542;DHT22;20784;51.332;12.410;2022-09-25T10:28:47;25.40;99.90
34542;DHT22;20784;51.332;12.410;2022-09-25T10:31:14;25.70;99.90
34542;DHT22;20784;51.332;12.410;2022-09-25T10:33:40;25.90;99.90
34542;DHT22;20784;51.332;12.410;2022-09-25T10:36:06;26.10;99.90
34542;DHT22;20784;51.332;12.410;2022-09-25T10:38:46;26.30;99.90
34542;DHT22;20784;51.332;12.410;2022-09-25T10:41:18;26.50;99.90
34542;DHT22;20784;51.332;12.410;2022-09-25T10:46:29;26.20;99.90
34542;DHT22;20784;51.332;12.410;2022-09-25T10:49:18;25.90;99.90
34542;DHT22;20784;51.332;12.410;2022-09-25T10:52:22;26.20;99.90
34542;DHT22;20784;51.332;12.410;2022-09-25T10:55:28;26.10;99.90
34542;DHT22;20784;51.332;12.410;2022-09-25T11:00:28;26.00;99.90
34542;DHT22;20784;51.332;12.410;2022-09-25T11:03:00;26.40;99.90
34542;DHT22;20784;51.332;12.410;2022-09-25T11:05:53;26.40;99.90
34542;DHT22;20784;51.332;12.410;2022-09-25T11:08:24;26.40;99.90
34542;DHT22;20784;51.332;12.410;2022-09-25T11:11:02;26.60;99.90
34542;DHT22;20784;51.332;12.410;2022-09-25T11:13:48;26.80;99.90
34542;DHT22;20784;51.332;12.410;2022-09-25T11:16:42;26.60;99.90
34542;DHT22;20784;51.332;12.410;2022-09-25T11:19:22;26.30;99.90
34542;DHT22;20784;51.332;12.410;2022-09-25T11:22:02;26.10;99.90
34542;DHT22;20784;51.332;12.410;2022-09-25T11:27:39;25.60;99.90
34542;DHT22;20784;51.332;12.410;2022-09-25T11:30:13;25.80;99.90
34542;DHT22;20784;51.332;12.410;2022-09-25T11:32:57;26.10;99.90
34542;DHT22;20784;51.332;12.410;2022-09-25T11:35:42;26.40;99.90
34542;DHT22;20784;51.332;12.410;2022-09-25T11:49:40;26.60;99.90
34542;DHT22;20784;51.332;12.410;2022-09-25T11:52:18;26.60;99.90
34542;DHT22;20784;51.332;12.410;2022-09-25T11:55:28;26.60;99.90
34542;DHT22;20784;51.332;12.410;2022-09-25T12:04:32;25.60;99.90
34542;DHT22;20784;51.332;12.410;2022-09-25T12:07:41;25.90;99.90
34542;DHT22;20784;51.332;12.410;2022-09-25T12:13:34;25.70;99.90
34542;DHT22;20784;51.332;12.410;2022-09-25T12:16:38;25.80;99.90
34542;DHT22;20784;51.332;12.410;2022-09-25T12:19:33;26.00;99.90
34542;DHT22;20784;51.332;12.410;2022-09-25T12:22:10;25.90;99.90
34542;DHT22;20784;51.332;12.410;2022-09-25T12:25:05;25.70;99.90
34542;DHT22;20784;51.332;12.410;2022-09-25T12:36:47;25.30;99.90
34542;DHT22;20784;51.332;12.410;2022-09-25T12:39:31;25.10;99.90
34542;DHT22;20784;51.332;12.410;2022-09-25T12:42:46;25.20;99.90
34542;DHT22;20784;51.332;12.410;2022-09-25T12:49:08;25.20;99.90
34542;DHT22;20784;51.332;12.410;2022-09-25T12:55:45;25.70;99.90
34542;DHT22;20784;51.332;12.410;2022-09-25T13:04:31;25.60;99.90
34542;DHT22;20784;51.332;12.410;2022-09-25T13:07:25;25.30;99.90
34542;DHT22;20784;51.332;12.410;2022-09-25T13:09:53;24.80;99.90
34542;DHT22;20784;51.332;12.410;2022-09-25T13:12:36;24.90;99.90
34542;DHT22;20784;51.332;12.410;2022-09-25T13:15:16;25.00;99.90
34542;DHT22;20784;51.332;12.410;2022-09-25T13:17:43;25.30;99.90
34542;DHT22;20784;51.332;12.410;2022-09-25T13:23:11;25.40;99.90
34542;DHT22;20784;51.332;12.410;2022-09-25T13:25:42;25.40;99.90
34542;DHT22;20784;51.332;12.410;2022-09-25T13:28:21;25.30;99.90
34542;DHT22;20784;51.332;12.410;2022-09-25T13:31:20;25.00;99.90
34542;DHT22;20784;51.332;12.410;2022-09-25T13:34:06;24.80;99.90
34542;DHT22;20784;51.332;12.410;2022-09-25T13:36:48;24.70;99.90
34542;DHT22;20784;51.332;12.410;2022-09-25T13:39:40;24.40;99.90
34542;DHT22;20784;51.332;12.410;2022-09-25T13:42:38;24.30;99.90
34542;DHT22;20784;51.332;12.410;2022-09-25T13:45:31;24.20;99.90
34542;DHT22;20784;51.332;12.410;2022-09-25T13:48:31;24.10;99.90
34542;DHT22;20784;51.332;12.410;2022-09-25T13:54:26;23.60;99.90
34542;DHT22;20784;51.332;12.410;2022-09-25T13:56:53;23.30;99.90
34542;DHT22;20784;51.332;12.410;2022-09-25T13:59:36;23.30;99.90
34542;DHT22;20784;51.332;12.410;2022-09-25T14:05:05;23.10;99.90
34542;DHT22;20784;51.332;12.410;2022-09-25T14:07:33;23.00;99.90
34542;DHT22;20784;51.332;12.410;2022-09-25T14:10:00;23.00;99.90
34542;DHT22;20784;51.332;12.410;2022-09-25T14:12:47;23.00;99.90
34542;DHT22;20784;51.332;12.410;2022-09-25T14:15:33;22.90;99.90
34542;DHT22;20784;51.332;12.410;2022-09-25T14:18:03;22.80;99.90
34542;DHT22;20784;51.332;12.410;2022-09-25T14:20:43;22.70;99.90
34542;DHT22;20784;51.332;12.410;2022-09-25T14:25:38;22.70;99.90
34542;DHT22;20784;51.332;12.410;2022-09-25T14:28:22;22.70;99.90
34542;DHT22;20784;51.332;12.410;2022-09-25T14:31:00;22.70;99.90
34542;DHT22;20784;51.332;12.410;2022-09-25T14:39:27;22.70;99.90
34542;DHT22;20784;51.332;12.410;2022-09-25T14:42:15;22.70;99.90
34542;DHT22;20784;51.332;12.410;2022-09-25T14:47:37;22.20;99.90
34542;DHT22;20784;51.332;12.410;2022-09-25T14:50:05;21.90;99.90
34542;DHT22;20784;51.332;12.410;2022-09-25T14:52:33;21.60;99.90
34542;DHT22;20784;51.332;12.410;2022-09-25T14:55:02;21.50;99.90
34542;DHT22;20784;51.332;12.410;2022-09-25T14:57:33;21.50;99.90
34542;DHT22;20784;51.332;12.410;2022-09-25T15:00:06;21.50;99.90
34542;DHT22;20784;51.332;12.410;2022-09-25T15:02:37;21.40;99.90
34542;DHT22;20784;51.332;12.410;2022-09-25T15:05:30;21.20;99.90
34542;DHT22;20784;51.332;12.410;2022-09-25T15:07:58;21.00;99.90
34542;DHT22;20784;51.332;12.410;2022-09-25T15:10:37;20.90;99.90
34542;DHT22;20784;51.332;12.410;2022-09-25T15:15:38;20.60;99.90
34542;DHT22;20784;51.332;12.410;2022-09-25T15:18:08;20.50;99.90
34542;DHT22;20784;51.332;12.410;2022-09-25T15:20:45;20.50;99.90
34542;DHT22;20784;51.332;12.410;2022-09-25T15:23:18;20.50;99.90
34542;DHT22;20784;51.332;12.410;2022-09-25T15:26:12;20.40;99.90
34542;DHT22;20784;51.332;12.410;2022-09-25T15:28:57;20.40;99.90
34542;DHT22;20784;51.332;12.410;2022-09-25T15:31:33;20.30;99.90
34542;DHT22;20784;51.332;12.410;2022-09-25T15:34:12;20.30;99.90
34542;DHT22;20784;51.332;12.410;2022-09-25T15:36:41;20.20;99.90
34542;DHT22;20784;51.332;12.410;2022-09-25T15:39:22;20.00;99.90
34542;DHT22;20784;51.332;12.410;2022-09-25T15:41:54;19.90;99.90
34542;DHT22;20784;51.332;12.410;2022-09-25T15:44:25;19.80;99.90
34542;DHT22;20784;51.332;12.410;2022-09-25T15:46:53;19.70;99.90
34542;DHT22;20784;51.332;12.410;2022-09-25T15:49:24;19.70;99.90
34542;DHT22;20784;51.332;12.410;2022-09-25T15:52:17;19.60;99.90
34542;DHT22;20784;51.332;12.410;2022-09-25T15:54:45;19.60;99.90
34542;DHT22;20784;51.332;12.410;2022-09-25T15:57:14;19.60;99.90
34542;DHT22;20784;51.332;12.410;2022-09-25T15:59:45;19.60;99.90
34542;DHT22;20784;51.332;12.410;2022-09-25T16:02:33;19.50;99.90
34542;DHT22;20784;51.332;12.410;2022-09-25T16:05:22;19.20;99.90
34542;DHT22;20784;51.332;12.410;2022-09-25T16:11:20;19.20;99.90
34542;DHT22;20784;51.332;12.410;2022-09-25T16:16:52;19.00;99.90
34542;DHT22;20784;51.332;12.410;2022-09-25T16:19:39;18.90;99.90
34542;DHT22;20784;51.332;12.410;2022-09-25T16:22:37;18.80;99.90
34542;DHT22;20784;51.332;12.410;2022-09-25T16:25:24;18.70;99.90
34542;DHT22;20784;51.332;12.410;2022-09-25T16:27:58;18.50;99.90
34542;DHT22;20784;51.332;12.410;2022-09-25T16:30:25;18.40;99.90
34542;DHT22;20784;51.332;12.410;2022-09-25T16:32:54;18.30;99.90
34542;DHT22;20784;51.332;12.410;2022-09-25T16:35:36;18.20;99.90
34542;DHT22;20784;51.332;12.410;2022-09-25T16:38:05;18.10;99.90
34542;DHT22;20784;51.332;12.410;2022-09-25T16:44:18;17.90;99.90
34542;DHT22;20784;51.332;12.410;2022-09-25T16:49:55;17.70;99.90
34542;DHT22;20784;51.332;12.410;2022-09-25T16:52:22;17.60;99.90
34542;DHT22;20784;51.332;12.410;2022-09-25T16:54:58;17.50;99.90
34542;DHT22;20784;51.332;12.410;2022-09-25T16:57:32;17.50;99.90
34542;DHT22;20784;51.332;12.410;2022-09-25T17:00:12;17.40;99.90
34542;DHT22;20784;51.332;12.410;2022-09-25T17:03:04;17.40;99.90
34542;DHT22;20784;51.332;12.410;2022-09-25T17:05:52;17.30;99.90
34542;DHT22;20784;51.332;12.410;2022-09-25T17:11:43;17.30;99.90
34542;DHT22;20784;51.332;12.410;2022-09-25T17:14:30;17.10;99.90
34542;DHT22;20784;51.332;12.410;2022-09-25T17:16:58;17.00;99.90
34542;DHT22;20784;51.332;12.410;2022-09-25T17:19:24;17.00;99.90
34542;DHT22;20784;51.332;12.410;2022-09-25T17:21:57;16.90;99.90
34542;DHT22;20784;51.332;12.410;2022-09-25T17:24:25;16.80;99.90
34542;DHT22;20784;51.332;12.410;2022-09-25T17:26:51;16.70;99.90
34542;DHT22;20784;51.332;12.410;2022-09-25T17:29:18;16.60;99.90
34542;DHT22;20784;51.332;12.410;2022-09-25T17:31:44;16.60;99.90
34542;DHT22;20784;51.332;12.410;2022-09-25T17:34:18;16.50;99.90
34542;DHT22;20784;51.332;12.410;2022-09-25T17:36:46;16.50;99.90
34542;DHT22;20784;51.332;12.410;2022-09-25T17:39:17;16.60;99.90
34542;DHT22;20784;51.332;12.410;2022-09-25T17:41:42;16.50;99.90
34542;DHT22;20784;51.332;12.410;2022-09-25T17:44:12;16.50;99.90
34542;DHT22;20784;51.332;12.410;2022-09-25T17:46:40;16.50;99.90
34542;DHT22;20784;51.332;12.410;2022-09-25T17:49:09;16.50;99.90
34542;DHT22;20784;51.332;12.410;2022-09-25T17:51:38;16.50;99.90
34542;DHT22;20784;51.332;12.410;2022-09-25T17:54:04;16.50;99.90
34542;DHT22;20784;51.332;12.410;2022-09-25T17:56:31;16.40;99.90
34542;DHT22;20784;51.332;12.410;2022-09-25T17:58:59;16.50;99.90
34542;DHT22;20784;51.332;12.410;2022-09-25T18:01:30;16.40;99.90
34542;DHT22;20784;51.332;12.410;2022-09-25T18:04:00;16.40;99.90
34542;DHT22;20784;51.332;12.410;2022-09-25T18:06:30;16.50;99.90
34542;DHT22;20784;51.332;12.410;2022-09-25T18:08:55;16.60;99.90
34542;DHT22;20784;51.332;12.410;2022-09-25T18:11:23;16.50;99.90
34542;DHT22;20784;51.332;12.410;2022-09-25T18:13:53;16.50;99.90
34542;DHT22;20784;51.332;12.410;2022-09-25T18:16:24;16.40;99.90
34542;DHT22;20784;51.332;12.410;2022-09-25T18:18:50;16.50;99.90
34542;DHT22;20784;51.332;12.410;2022-09-25T18:21:34;16.40;99.90
34542;DHT22;20784;51.332;12.410;2022-09-25T18:24:18;16.40;99.90
34542;DHT22;20784;51.332;12.410;2022-09-25T18:26:46;16.30;99.90
34542;DHT22;20784;51.332;12.410;2022-09-25T18:29:16;16.30;99.90
34542;DHT22;20784;51.332;12.410;2022-09-25T18:31:54;16.20;99.90
34542;DHT22;20784;51.332;12.410;2022-09-25T18:34:19;16.30;99.90
34542;DHT22;20784;51.332;12.410;2022-09-25T18:36:50;16.20;99.90
34542;DHT22;20784;51.332;12.410;2022-09-25T18:39:15;16.20;99.90
34542;DHT22;20784;51.332;12.410;2022-09-25T18:41:41;16.20;99.90
34542;DHT22;20784;51.332;12.410;2022-09-25T18:44:11;16.10;99.90
34542;DHT22;20784;51.332;12.410;2022-09-25T18:46:37;16.20;99.90
34542;DHT22;20784;51.332;12.410;2022-09-25T18:49:06;16.00;99.90
34542;DHT22;20784;51.332;12.410;2022-09-25T18:51:33;16.00;99.90
34542;DHT22;20784;51.332;12.410;2022-09-25T18:53:59;16.10;99.90
34542;DHT22;20784;51.332;12.410;2022-09-25T18:56:25;15.90;99.90